This is the latest recevied weather packets stored in our database for station/object KD0RIH. If no packets are shown the sender has not sent any weather packets the latest 10 day(s).
| Time | Temp. | Humidity | Pressure | Rain* | Wind** | Luminosity | Snow |
|---|---|---|---|---|---|---|---|
| 1777728390 | 11.67° C | 54% | 1021.4 hPa | 0 mm | - | 327 W/m² | - |
| 1777728087 | 11.11° C | 55% | 1021.2 hPa | 0 mm | - | 306 W/m² | - |
| 1777727784 | 10.56° C | 56% | 1021.2 hPa | 0 mm | - | 283 W/m² | - |
| 1777727481 | 10.56° C | 56% | 1021.1 hPa | 0 mm | - | 263 W/m² | - |
| 1777727178 | 10.56° C | 58% | 1021.1 hPa | 0 mm | - | 140 W/m² | - |
| 1777726876 | 10° C | 60% | 1021.1 hPa | 0 mm | - | 86 W/m² | - |
| 1777726571 | 9.44° C | 62% | 1021.1 hPa | 0 mm | - | 211 W/m² | - |
| 1777726269 | 10° C | 60% | 1021 hPa | 0 mm | - | 194 W/m² | - |
| 1777725966 | 8.89° C | 65% | 1021.1 hPa | 0 mm | - | 177 W/m² | - |
| 1777725663 | 8.33° C | 67% | 1020.9 hPa | 0 mm | - | 159 W/m² | - |
| 1777725361 | 7.78° C | 67% | 1021 hPa | 0 mm | - | 142 W/m² | - |
| 1777725058 | 7.78° C | 69% | 1021 hPa | 0 mm | - | 126 W/m² | - |
| 1777724754 | 6.67° C | 71% | 1020.9 hPa | 0 mm | - | 111 W/m² | - |
| 1777724452 | 6.67° C | 71% | 1020.8 hPa | 0 mm | - | 98 W/m² | - |
| 1777724149 | 6.11° C | 75% | 1020.8 hPa | 0 mm | - | 82 W/m² | - |
| 1777723846 | 6.11° C | 75% | 1020.8 hPa | 0 mm | - | 74 W/m² | - |
| 1777723542 | 6.11° C | 76% | 1020.6 hPa | 0 mm | - | 52 W/m² | - |
| 1777723240 | 5.56° C | 77% | 1020.6 hPa | 0 mm | - | 44 W/m² | - |
| 1777722938 | 5.56° C | 78% | 1020.5 hPa | 0 mm | - | 44 W/m² | - |
| 1777722633 | 5° C | 80% | 1020.6 hPa | 0 mm | - | 36 W/m² | - |
| 1777722330 | 5° C | 81% | 1020.5 hPa | 0 mm | - | 29 W/m² | - |
| 1777722027 | 4.44° C | 81% | 1020.4 hPa | 0 mm | - | 24 W/m² | - |
| 1777721724 | 4.44° C | 81% | 1020.6 hPa | 0 mm | - | 19 W/m² | - |
| 1777721423 | 4.44° C | 82% | 1020.4 hPa | 0 mm | - | 14 W/m² | - |
| 1777721120 | 4.44° C | 81% | 1020.3 hPa | 0 mm | - | 10 W/m² | - |
* Rain latest hour (hover to see other rain measurements)
** Current wind speed in m/s (hover to see current wind gust speed)